createdAt,value
2018-05-10T00:02:23.180Z,18.64
2018-05-10T00:04:50.592Z,18.58
2018-05-10T00:07:18.020Z,18.53
2018-05-10T00:09:45.430Z,18.49
2018-05-10T00:12:12.863Z,18.43
2018-05-10T00:14:40.296Z,18.25
2018-05-10T00:17:07.713Z,18.33
2018-05-10T00:19:35.222Z,18.33
2018-05-10T00:22:03.369Z,18.31
2018-05-10T00:24:30.868Z,18.28
2018-05-10T00:26:58.321Z,18.22
2018-05-10T00:29:25.782Z,18.15
2018-05-10T00:31:53.202Z,18.10
2018-05-10T00:34:20.612Z,18.07
2018-05-10T00:36:48.042Z,18.03
2018-05-10T00:39:15.472Z,17.98
2018-05-10T00:41:42.888Z,17.96
2018-05-10T00:44:10.326Z,17.96
2018-05-10T00:46:37.745Z,17.93
2018-05-10T00:49:05.157Z,17.86
2018-05-10T00:51:32.587Z,17.80
2018-05-10T00:53:59.992Z,17.77
2018-05-10T00:56:27.394Z,17.75
2018-05-10T00:58:54.817Z,17.72
2018-05-10T01:01:22.224Z,17.71
2018-05-10T01:03:49.649Z,17.70
2018-05-10T01:06:17.048Z,17.71
2018-05-10T01:08:44.474Z,17.70
2018-05-10T01:11:11.897Z,17.63
2018-05-10T01:13:39.298Z,17.56
2018-05-10T01:16:06.720Z,17.50
2018-05-10T01:18:34.150Z,17.43
2018-05-10T01:21:01.554Z,17.39
2018-05-10T01:23:28.981Z,17.37
2018-05-10T01:25:56.384Z,17.36
2018-05-10T01:28:23.836Z,17.37
2018-05-10T01:30:51.249Z,17.35
2018-05-10T01:33:18.679Z,17.34
2018-05-10T01:35:57.787Z,17.28
2018-05-10T01:38:25.224Z,17.26
2018-05-10T01:40:52.660Z,17.23
2018-05-10T01:43:20.055Z,17.22
2018-05-10T01:45:47.487Z,17.20
2018-05-10T01:48:14.902Z,17.17
2018-05-10T01:50:42.308Z,17.12
2018-05-10T01:53:09.741Z,17.07
2018-05-10T01:55:37.143Z,17.06
2018-05-10T01:58:04.570Z,17.05
2018-05-10T02:00:31.987Z,17.05
2018-05-10T02:02:59.408Z,17.01
2018-05-10T02:05:26.824Z,16.99
2018-05-10T02:07:54.257Z,16.96
2018-05-10T02:10:21.666Z,16.92
2018-05-10T02:12:49.084Z,16.91
2018-05-10T02:15:16.505Z,16.91
2018-05-10T02:17:43.902Z,16.90
2018-05-10T02:20:11.327Z,16.87
2018-05-10T02:22:38.767Z,16.83
2018-05-10T02:25:06.176Z,16.80
2018-05-10T02:27:33.584Z,16.81
2018-05-10T02:30:01.009Z,16.84
2018-05-10T02:32:28.414Z,16.85
2018-05-10T02:34:55.853Z,16.84
2018-05-10T02:37:23.271Z,16.86
2018-05-10T02:39:50.698Z,16.84
2018-05-10T02:42:18.108Z,16.83
2018-05-10T02:44:45.543Z,16.83
2018-05-10T02:47:12.954Z,16.84
2018-05-10T02:49:40.369Z,16.85
2018-05-10T02:52:07.791Z,16.85
2018-05-10T02:54:35.204Z,16.85
2018-05-10T02:57:02.615Z,16.86
2018-05-10T02:59:30.052Z,16.85
2018-05-10T03:01:57.452Z,16.85
2018-05-10T03:04:24.852Z,16.79
2018-05-10T03:06:52.276Z,16.70
2018-05-10T03:09:19.681Z,16.65
2018-05-10T03:11:47.112Z,16.64
2018-05-10T03:14:14.516Z,16.63
2018-05-10T03:16:41.919Z,16.63
2018-05-10T03:19:09.344Z,16.62
2018-05-10T03:21:36.789Z,16.60
2018-05-10T03:24:04.228Z,16.60
2018-05-10T03:26:31.651Z,16.62
2018-05-10T03:28:59.064Z,16.62
2018-05-10T03:31:26.498Z,16.65
2018-05-10T03:33:53.907Z,16.66
2018-05-10T03:36:21.306Z,16.66
2018-05-10T03:38:48.726Z,16.64
2018-05-10T03:41:16.179Z,16.60
2018-05-10T03:43:43.575Z,16.60
2018-05-10T03:46:10.991Z,16.59
2018-05-10T03:48:38.392Z,16.63
2018-05-10T03:51:05.815Z,16.67
2018-05-10T03:53:33.212Z,16.71
2018-05-10T03:56:00.616Z,16.76
2018-05-10T03:58:28.039Z,16.82
2018-05-10T04:00:55.448Z,16.87
2018-05-10T04:06:35.295Z,17.01
2018-05-10T04:09:14.644Z,17.06
2018-05-10T04:11:42.049Z,17.11
2018-05-10T04:14:09.714Z,17.16
2018-05-10T04:16:37.115Z,17.21
2018-05-10T04:19:04.520Z,17.27
2018-05-10T04:21:31.952Z,17.35
2018-05-10T04:23:59.358Z,17.39
2018-05-10T04:26:26.789Z,17.45
2018-05-10T04:28:54.205Z,17.54
2018-05-10T04:31:21.634Z,17.68
2018-05-10T04:33:49.058Z,17.90
2018-05-10T04:36:16.467Z,18.16
2018-05-10T04:38:43.880Z,18.56
2018-05-10T04:41:11.284Z,19.06
2018-05-10T04:43:38.704Z,19.49
2018-05-10T04:46:06.126Z,19.88
2018-05-10T04:48:33.553Z,20.23
2018-05-10T04:51:00.951Z,20.51
2018-05-10T04:53:28.355Z,20.73
2018-05-10T04:55:55.775Z,20.95
2018-05-10T04:58:23.175Z,21.17
2018-05-10T05:00:50.599Z,21.33
2018-05-10T05:03:18.036Z,21.58
2018-05-10T05:05:45.825Z,21.82
2018-05-10T05:08:13.228Z,22.01
2018-05-10T05:10:40.664Z,21.98
2018-05-10T05:13:08.331Z,22.33
2018-05-10T05:15:35.736Z,22.57
2018-05-10T05:18:03.142Z,22.77
2018-05-10T05:20:30.565Z,22.80
2018-05-10T05:22:57.980Z,22.90
2018-05-10T05:25:25.395Z,22.97
2018-05-10T05:27:52.799Z,23.14
2018-05-10T05:30:20.224Z,23.07
2018-05-10T05:32:47.652Z,22.88
2018-05-10T05:35:15.032Z,22.93
2018-05-10T05:37:42.452Z,22.98
2018-05-10T05:40:09.863Z,22.86
2018-05-10T05:42:37.279Z,22.63
2018-05-10T05:45:04.683Z,22.54
2018-05-10T05:47:32.105Z,22.40
2018-05-10T05:49:59.508Z,22.51
2018-05-10T05:52:27.021Z,22.66
2018-05-10T05:54:54.451Z,22.87
2018-05-10T05:57:21.824Z,23.03
2018-05-10T05:59:49.242Z,23.34
2018-05-10T06:02:16.660Z,23.60
2018-05-10T06:04:44.072Z,23.98
2018-05-10T06:07:11.476Z,23.91
2018-05-10T06:09:38.885Z,24.03
2018-05-10T06:12:06.304Z,24.00
2018-05-10T06:14:33.710Z,24.19
2018-05-10T06:17:01.176Z,24.24
2018-05-10T06:19:28.531Z,24.06
2018-05-10T06:21:55.948Z,23.79
2018-05-10T06:24:23.360Z,23.41
2018-05-10T06:26:50.775Z,23.17
2018-05-10T06:29:18.181Z,22.80
2018-05-10T06:31:45.596Z,22.50
2018-05-10T06:34:13.009Z,22.21
2018-05-10T06:36:40.406Z,21.69
2018-05-10T06:39:07.843Z,21.44
2018-05-10T06:41:35.276Z,21.17
2018-05-10T06:44:02.667Z,21.04
2018-05-10T06:46:30.097Z,20.94
2018-05-10T06:48:57.514Z,20.84
2018-05-10T06:51:24.920Z,20.72
2018-05-10T06:53:52.344Z,20.33
2018-05-10T06:56:19.743Z,20.14
2018-05-10T06:58:47.152Z,19.96
2018-05-10T07:01:14.564Z,19.93
2018-05-10T07:03:41.986Z,19.87
2018-05-10T07:06:09.413Z,19.71
2018-05-10T07:08:36.821Z,19.61
2018-05-10T07:11:04.224Z,19.54
2018-05-10T07:13:31.645Z,19.50
2018-05-10T07:15:59.047Z,19.47
2018-05-10T07:18:26.467Z,19.41
2018-05-10T07:20:53.874Z,19.45
2018-05-10T07:23:21.291Z,19.47
2018-05-10T07:25:48.699Z,19.51
2018-05-10T07:28:16.132Z,19.49
2018-05-10T07:30:43.536Z,19.41
2018-05-10T07:33:10.951Z,19.39
2018-05-10T07:35:38.358Z,19.52
2018-05-10T07:38:05.759Z,19.85
2018-05-10T07:40:33.184Z,20.07
2018-05-10T07:43:00.595Z,20.27
2018-05-10T07:45:28.024Z,20.64
2018-05-10T07:47:55.426Z,21.11
2018-05-10T07:50:22.845Z,21.82
2018-05-10T07:52:50.252Z,22.39
2018-05-10T07:55:17.672Z,22.82
2018-05-10T07:57:45.080Z,23.11
2018-05-10T08:00:12.489Z,23.00
2018-05-10T08:02:40.189Z,23.20
2018-05-10T08:05:07.598Z,23.74
2018-05-10T08:07:35.001Z,23.90
2018-05-10T08:10:02.508Z,23.96
2018-05-10T08:12:30.264Z,23.93
2018-05-10T08:14:57.664Z,23.83
2018-05-10T08:17:25.078Z,23.85
2018-05-10T08:19:52.494Z,24.00
2018-05-10T08:22:19.914Z,23.94
2018-05-10T08:24:47.349Z,23.84
2018-05-10T08:27:14.751Z,23.84
2018-05-10T08:29:48.869Z,24.00
2018-05-10T08:32:16.281Z,24.45
2018-05-10T08:34:43.699Z,24.66
2018-05-10T08:37:11.104Z,24.42
2018-05-10T08:39:38.517Z,24.58
2018-05-10T08:42:05.932Z,24.14
2018-05-10T08:44:33.335Z,24.43
2018-05-10T08:47:00.755Z,24.61
2018-05-10T08:49:28.169Z,24.54
2018-05-10T08:51:55.660Z,24.76
2018-05-10T08:54:23.045Z,25.11
2018-05-10T08:56:50.471Z,25.10
2018-05-10T08:59:17.871Z,25.20
2018-05-10T09:01:45.292Z,25.10
2018-05-10T09:04:12.719Z,25.05
2018-05-10T09:06:40.125Z,24.90
2018-05-10T09:09:07.544Z,24.59
2018-05-10T09:11:34.972Z,24.30
2018-05-10T09:14:02.391Z,24.30
2018-05-10T09:16:29.843Z,24.44
2018-05-10T09:18:57.265Z,24.31
2018-05-10T09:21:24.669Z,24.14
2018-05-10T09:23:52.116Z,24.07
2018-05-10T09:29:02.775Z,23.91
2018-05-10T09:31:30.214Z,23.61
2018-05-10T09:33:57.684Z,23.24
2018-05-10T09:36:25.428Z,23.11
2018-05-10T09:38:52.836Z,22.86
2018-05-10T09:41:20.243Z,22.60
2018-05-10T09:43:47.663Z,22.54
2018-05-10T09:46:15.551Z,22.42
2018-05-10T09:48:43.089Z,22.42
2018-05-10T09:51:10.832Z,22.28
2018-05-10T09:53:38.268Z,21.93
2018-05-10T09:56:05.676Z,21.71
2018-05-10T09:58:33.140Z,21.56
2018-05-10T10:01:00.717Z,21.47
2018-05-10T10:03:28.388Z,21.43
2018-05-10T10:05:55.908Z,21.50
2018-05-10T10:08:23.624Z,21.62
2018-05-10T10:10:51.061Z,21.55
2018-05-10T10:13:18.465Z,21.72
2018-05-10T10:15:45.911Z,22.14
2018-05-10T10:18:13.315Z,22.49
2018-05-10T10:20:40.784Z,22.70
2018-05-10T10:23:08.189Z,22.87
2018-05-10T10:25:35.606Z,22.82
2018-05-10T10:28:03.499Z,22.97
2018-05-10T10:30:31.026Z,23.29
2018-05-10T10:32:58.622Z,23.56
2018-05-10T10:35:26.046Z,23.86
2018-05-10T10:37:53.605Z,24.06
2018-05-10T10:40:21.055Z,24.01
2018-05-10T10:42:48.468Z,23.75
2018-05-10T10:45:15.972Z,23.75
2018-05-10T10:47:43.608Z,23.61
2018-05-10T10:50:11.056Z,23.55
2018-05-10T10:52:38.461Z,23.34
2018-05-10T10:55:06.149Z,23.02
2018-05-10T10:57:33.575Z,22.92
2018-05-10T11:00:01.058Z,22.79
2018-05-10T11:02:28.409Z,22.77
2018-05-10T11:04:56.159Z,22.66
2018-05-10T11:07:23.600Z,22.47
2018-05-10T11:09:51.009Z,22.37
2018-05-10T11:12:18.812Z,22.19
2018-05-10T11:14:46.465Z,22.01
2018-05-10T11:17:13.940Z,21.87
2018-05-10T11:19:41.726Z,21.75
2018-05-10T11:22:09.137Z,21.63
2018-05-10T11:24:36.542Z,21.65
2018-05-10T11:27:03.972Z,21.57
2018-05-10T11:29:31.460Z,21.66
2018-05-10T11:31:58.801Z,21.64
2018-05-10T11:34:26.215Z,21.60
2018-05-10T11:36:53.921Z,21.31
2018-05-10T11:39:21.958Z,21.18
2018-05-10T11:41:49.513Z,21.29
2018-05-10T11:44:16.908Z,21.35
2018-05-10T11:46:44.436Z,21.32
2018-05-10T11:49:11.840Z,21.20
2018-05-10T11:51:39.573Z,20.97
2018-05-10T11:54:06.972Z,20.95
2018-05-10T11:56:34.383Z,20.69
2018-05-10T11:59:01.805Z,20.41
2018-05-10T12:01:29.224Z,20.22
2018-05-10T12:03:56.707Z,20.11
2018-05-10T12:06:24.275Z,19.98
2018-05-10T12:08:51.703Z,20.16
2018-05-10T12:11:19.496Z,20.28
2018-05-10T12:13:46.933Z,20.20
2018-05-10T12:16:14.353Z,20.29
2018-05-10T12:18:41.785Z,20.40
2018-05-10T12:21:09.181Z,20.41
2018-05-10T12:23:36.607Z,20.14
2018-05-10T12:26:04.007Z,20.14
2018-05-10T12:28:31.463Z,20.00
2018-05-10T12:30:58.962Z,20.00
2018-05-10T12:33:26.316Z,19.80
2018-05-10T12:35:53.763Z,19.62
2018-05-10T12:38:21.178Z,19.34
2018-05-10T12:40:48.581Z,19.31
2018-05-10T12:43:15.999Z,19.32
2018-05-10T12:45:43.425Z,19.26
2018-05-10T12:48:10.844Z,19.28
2018-05-10T12:50:38.251Z,19.33
2018-05-10T12:53:05.678Z,19.31
2018-05-10T12:55:33.088Z,19.36
2018-05-10T12:58:00.779Z,19.32
2018-05-10T13:00:28.193Z,19.34
2018-05-10T13:02:55.667Z,19.04
2018-05-10T13:05:23.025Z,18.81
2018-05-10T13:07:50.432Z,18.76
2018-05-10T13:10:17.860Z,18.72
2018-05-10T13:12:45.268Z,18.69
2018-05-10T13:15:12.692Z,18.65
2018-05-10T13:17:40.100Z,18.66
2018-05-10T13:20:07.531Z,18.49
2018-05-10T13:22:34.953Z,18.45
2018-05-10T13:25:02.692Z,18.38
2018-05-10T13:27:30.100Z,18.36
2018-05-10T13:29:57.507Z,18.35
2018-05-10T13:32:24.935Z,18.30
2018-05-10T13:34:52.348Z,18.29
2018-05-10T13:37:20.070Z,18.34
2018-05-10T13:39:47.473Z,18.45
2018-05-10T13:42:14.876Z,18.37
2018-05-10T13:44:42.307Z,18.42
2018-05-10T13:47:09.824Z,18.26
2018-05-10T13:49:37.141Z,18.24
2018-05-10T13:52:04.563Z,18.36
2018-05-10T13:54:31.984Z,18.48
2018-05-10T13:56:59.401Z,18.45
2018-05-10T13:59:26.810Z,18.41
2018-05-10T14:01:54.232Z,18.46
2018-05-10T14:04:21.641Z,18.40
2018-05-10T14:06:49.072Z,18.42
2018-05-10T14:09:16.478Z,18.40
2018-05-10T14:11:43.914Z,18.24
2018-05-10T14:14:11.320Z,18.20
2018-05-10T14:16:38.779Z,18.13
2018-05-10T14:19:06.270Z,18.25
2018-05-10T14:21:33.681Z,18.38
2018-05-10T14:24:01.104Z,18.38
2018-05-10T14:26:28.521Z,18.57
2018-05-10T14:28:55.952Z,18.59
2018-05-10T14:31:23.357Z,18.40
2018-05-10T14:33:50.776Z,18.65
2018-05-10T14:36:18.183Z,18.71
2018-05-10T14:38:45.594Z,18.79
2018-05-10T14:41:13.025Z,18.85
2018-05-10T14:43:40.433Z,18.90
2018-05-10T14:46:07.913Z,18.97
2018-05-10T14:48:35.352Z,18.97
2018-05-10T14:51:02.987Z,19.02
2018-05-10T14:53:30.977Z,18.98
2018-05-10T14:55:58.384Z,19.08
2018-05-10T14:58:26.115Z,19.11
2018-05-10T15:00:53.520Z,19.21
2018-05-10T15:03:20.925Z,19.16
2018-05-10T15:05:48.349Z,19.20
2018-05-10T15:08:15.752Z,19.13
2018-05-10T15:10:43.291Z,19.08
2018-05-10T15:13:10.688Z,18.91
2018-05-10T15:15:38.141Z,18.77
2018-05-10T15:18:05.524Z,18.73
2018-05-10T15:20:32.951Z,18.59
2018-05-10T15:23:00.357Z,18.54
2018-05-10T15:25:28.192Z,18.50
2018-05-10T15:27:55.612Z,18.36
2018-05-10T15:30:23.081Z,18.35
2018-05-10T15:32:51.728Z,18.36
2018-05-10T15:35:19.208Z,18.22
2018-05-10T15:37:46.633Z,18.15
2018-05-10T15:40:14.045Z,18.05
2018-05-10T15:42:41.925Z,17.99
2018-05-10T15:45:09.401Z,17.89
2018-05-10T15:47:36.828Z,17.76
2018-05-10T15:50:04.260Z,17.65
2018-05-10T15:52:31.669Z,17.57
2018-05-10T15:54:59.107Z,17.44
2018-05-10T15:57:26.883Z,17.47
2018-05-10T15:59:54.627Z,17.51
2018-05-10T16:02:22.247Z,17.47
2018-05-10T16:04:49.673Z,17.46
2018-05-10T16:07:17.100Z,17.43
2018-05-10T16:09:44.510Z,17.42
2018-05-10T16:12:12.297Z,17.39
2018-05-10T16:14:39.879Z,17.37
2018-05-10T16:17:07.341Z,17.38
2018-05-10T16:19:35.096Z,17.34
2018-05-10T16:22:03.147Z,17.32
2018-05-10T16:24:30.556Z,17.36
2018-05-10T16:26:58.003Z,17.40
2018-05-10T16:29:25.866Z,17.43
2018-05-10T16:31:53.301Z,17.37
2018-05-10T16:34:20.748Z,17.39
2018-05-10T16:36:48.199Z,17.35
2018-05-10T16:39:15.637Z,17.36
2018-05-10T16:41:43.100Z,17.36
2018-05-10T16:44:10.512Z,17.38
2018-05-10T16:46:37.940Z,17.41
2018-05-10T16:49:05.362Z,17.40
2018-05-10T16:51:32.776Z,17.41
2018-05-10T16:54:00.224Z,17.43
2018-05-10T16:56:27.803Z,17.45
2018-05-10T16:58:55.506Z,17.44
2018-05-10T17:01:22.909Z,17.45
2018-05-10T17:03:50.339Z,17.44
2018-05-10T17:06:17.764Z,17.40
2018-05-10T17:08:45.192Z,17.38
2018-05-10T17:11:12.864Z,17.29
2018-05-10T17:13:40.288Z,17.24
2018-05-10T17:16:07.720Z,17.20
2018-05-10T17:18:35.339Z,17.18
2018-05-10T17:21:03.703Z,17.07
2018-05-10T17:23:32.081Z,16.94
2018-05-10T17:25:59.624Z,16.87
2018-05-10T17:28:27.055Z,16.87
2018-05-10T17:30:54.586Z,16.78
2018-05-10T17:33:21.871Z,16.79
2018-05-10T17:35:49.515Z,16.78
2018-05-10T17:38:16.928Z,16.74
2018-05-10T17:40:44.361Z,16.72
2018-05-10T17:43:11.981Z,16.66
2018-05-10T17:45:39.586Z,16.65
2018-05-10T17:48:07.109Z,16.58
2018-05-10T17:50:34.457Z,16.56
2018-05-10T17:53:01.885Z,16.59
2018-05-10T17:55:29.288Z,16.57
2018-05-10T17:57:56.740Z,16.60
2018-05-10T18:00:24.148Z,16.39
2018-05-10T18:02:51.607Z,16.43
2018-05-10T18:05:19.033Z,16.43
2018-05-10T18:07:46.455Z,16.41
2018-05-10T18:10:13.873Z,16.36
2018-05-10T18:12:41.293Z,16.36
2018-05-10T18:15:08.968Z,16.32
2018-05-10T18:17:36.596Z,16.36
2018-05-10T18:20:04.005Z,16.39
2018-05-10T18:22:31.440Z,16.40
2018-05-10T18:24:58.852Z,16.38
2018-05-10T18:27:26.284Z,16.38
2018-05-10T18:29:53.746Z,16.39
2018-05-10T18:32:21.334Z,16.38
2018-05-10T18:34:48.740Z,16.40
2018-05-10T18:37:16.310Z,16.31
2018-05-10T18:39:43.723Z,16.26
2018-05-10T18:42:11.131Z,16.30
2018-05-10T18:44:38.928Z,16.27
2018-05-10T18:47:06.371Z,16.30
2018-05-10T18:49:33.772Z,16.23
2018-05-10T18:52:01.198Z,16.23
2018-05-10T18:54:28.696Z,16.22
2018-05-10T18:56:56.152Z,16.18
2018-05-10T18:59:23.784Z,16.18
2018-05-10T19:01:51.295Z,16.12
2018-05-10T19:04:18.643Z,15.90
2018-05-10T19:06:46.064Z,15.92
2018-05-10T19:09:13.516Z,15.84
2018-05-10T19:11:40.930Z,15.69
2018-05-10T19:14:08.392Z,15.64
2018-05-10T19:16:35.801Z,15.73
2018-05-10T19:19:03.219Z,15.79
2018-05-10T19:21:30.632Z,15.73
2018-05-10T19:23:58.345Z,15.76
2018-05-10T19:26:25.933Z,15.71
2018-05-10T19:28:53.375Z,15.67
2018-05-10T19:31:21.486Z,15.69
2018-05-10T19:33:48.947Z,15.66
2018-05-10T19:36:16.428Z,15.64
2018-05-10T19:38:43.844Z,15.66
2018-05-10T19:41:11.311Z,15.68
2018-05-10T19:43:38.723Z,15.70
2018-05-10T19:46:06.162Z,15.68
2018-05-10T19:48:33.733Z,15.65
2018-05-10T19:51:01.128Z,15.59
2018-05-10T19:53:28.575Z,15.58
2018-05-10T19:55:56.014Z,15.57
2018-05-10T19:58:23.482Z,15.59
2018-05-10T20:00:50.888Z,15.61
2018-05-10T20:03:19.940Z,15.62
2018-05-10T20:05:47.425Z,15.56
2018-05-10T20:08:14.909Z,15.57
2018-05-10T20:10:42.380Z,15.57
2018-05-10T20:13:09.836Z,15.51
2018-05-10T20:15:37.945Z,15.50
2018-05-10T20:18:05.383Z,15.47
2018-05-10T20:20:36.917Z,15.49
2018-05-10T20:23:10.463Z,15.48
2018-05-10T20:25:38.398Z,15.44
2018-05-10T20:28:06.690Z,15.41
2018-05-10T20:30:35.085Z,15.38
2018-05-10T20:33:04.331Z,15.28
2018-05-10T20:35:31.757Z,15.29
2018-05-10T20:37:59.185Z,15.35
2018-05-10T20:40:26.631Z,15.37
2018-05-10T20:42:54.109Z,15.38
2018-05-10T20:45:21.529Z,15.39
2018-05-10T20:47:48.954Z,15.41
2018-05-10T20:50:16.356Z,15.43
2018-05-10T20:52:43.793Z,15.43
2018-05-10T20:55:11.584Z,15.43
2018-05-10T20:57:38.876Z,15.35
2018-05-10T21:00:06.308Z,15.36
2018-05-10T21:02:33.711Z,15.31
2018-05-10T21:05:01.145Z,15.29
2018-05-10T21:07:28.548Z,15.25
2018-05-10T21:09:56.051Z,15.25
2018-05-10T21:12:35.288Z,15.20
2018-05-10T21:15:02.732Z,15.21
2018-05-10T21:17:30.143Z,15.20
2018-05-10T21:19:57.547Z,15.19
2018-05-10T21:22:24.975Z,15.17
2018-05-10T21:24:52.392Z,15.16
2018-05-10T21:27:19.813Z,15.11
2018-05-10T21:29:47.223Z,15.11
2018-05-10T21:32:14.656Z,15.01
2018-05-10T21:34:42.068Z,15.01
2018-05-10T21:37:09.495Z,15.01
2018-05-10T21:39:36.924Z,15.04
2018-05-10T21:42:04.332Z,15.03
2018-05-10T21:44:31.762Z,15.03
2018-05-10T21:46:59.170Z,14.98
2018-05-10T21:49:38.340Z,14.95
2018-05-10T21:52:05.743Z,14.93
2018-05-10T21:54:33.173Z,14.86
2018-05-10T21:57:00.578Z,14.83
2018-05-10T21:59:27.988Z,14.83
2018-05-10T22:01:55.413Z,14.85
2018-05-10T22:04:22.835Z,14.86
2018-05-10T22:06:50.259Z,14.87
2018-05-10T22:09:17.710Z,14.86
2018-05-10T22:11:45.112Z,14.86
2018-05-10T22:14:12.540Z,14.85
2018-05-10T22:16:39.955Z,14.84
2018-05-10T22:19:07.376Z,14.83
2018-05-10T22:21:34.805Z,14.84
2018-05-10T22:24:02.213Z,14.82
2018-05-10T22:26:29.670Z,14.81
2018-05-10T22:28:57.072Z,14.81
2018-05-10T22:31:24.502Z,14.80
2018-05-10T22:33:51.911Z,14.78
2018-05-10T22:36:19.337Z,14.74
2018-05-10T22:38:46.755Z,14.70
2018-05-10T22:41:14.181Z,14.69
2018-05-10T22:43:41.588Z,14.69
2018-05-10T22:46:09.000Z,14.67
2018-05-10T22:48:36.436Z,14.46
2018-05-10T22:51:03.839Z,14.23
2018-05-10T22:53:31.264Z,14.04
2018-05-10T22:55:58.692Z,13.99
2018-05-10T22:58:26.088Z,13.90
2018-05-10T23:00:53.520Z,13.76
2018-05-10T23:03:20.930Z,13.72
2018-05-10T23:05:48.356Z,13.69
2018-05-10T23:08:15.769Z,13.65
2018-05-10T23:10:43.198Z,13.61
2018-05-10T23:13:10.604Z,13.55
2018-05-10T23:15:38.013Z,13.49
2018-05-10T23:18:05.435Z,13.45
2018-05-10T23:20:32.844Z,13.41
2018-05-10T23:23:00.260Z,13.42
2018-05-10T23:25:27.666Z,13.35
2018-05-10T23:27:55.091Z,13.33
2018-05-10T23:30:22.496Z,13.29
2018-05-10T23:32:50.249Z,13.27
2018-05-10T23:35:17.657Z,13.20
2018-05-10T23:37:45.068Z,13.18
2018-05-10T23:40:12.488Z,13.18
2018-05-10T23:42:39.908Z,13.16
2018-05-10T23:45:07.333Z,13.17
2018-05-10T23:47:34.743Z,13.15
2018-05-10T23:50:02.459Z,13.16
2018-05-10T23:52:29.861Z,13.16
2018-05-10T23:54:57.268Z,13.18
2018-05-10T23:57:24.701Z,13.19
2018-05-10T23:59:52.116Z,13.18
